Time;durP1;ratioP1;P1;durP2;ratioP2;P2;SDS_P1;SDS_P2;PMS_P1;PMS_P2;Temp;Humidity;BMP_temperature;BMP_pressure;BME280_temperature;BME280_humidity;BME280_pressure;Samples;Min_cycle;Max_cycle;Signal;HPM_P1;HPM_P2
2022/01/15 00:02:20;;;;;;;4.63;2.58;;;;;;;;;;5010154;28;20422;-86
2022/01/15 00:04:46;;;;;;;4.18;2.35;;;;;;;;;;5014071;28;20036;-85
2022/01/15 00:07:11;;;;;;;4.65;2.95;;;;;;;;;;5013652;28;20128;-83
2022/01/15 00:09:38;;;;;;;3.25;1.92;;;;;;;;;;5012481;28;20429;-84
2022/01/15 00:12:05;;;;;;;5.20;2.78;;;;;;;;;;5013412;28;20034;-84
2022/01/15 00:14:37;;;;;;;3.72;2.42;;;;;;;;;;4995817;28;20036;-84
2022/01/15 00:17:42;;;;;;;3.50;2.60;;;;;;;;;;5013268;28;20508;-85
2022/01/15 00:19:51;;;;;;;3.80;2.15;;;;;;;;;;5010904;28;20032;-84
2022/01/15 00:22:19;;;;;;;4.68;3.00;;;;;;;;;;4996514;28;20108;-85
2022/01/15 00:24:45;;;;;;;4.68;2.40;;;;;;;;;;5033728;28;20382;-85
2022/01/15 00:27:12;;;;;;;5.10;2.40;;;;;;;;;;5015034;28;20025;-85
2022/01/15 00:29:38;;;;;;;4.43;2.65;;;;;;;;;;5015117;28;20018;-85
2022/01/15 00:32:06;;;;;;;4.95;2.95;;;;;;;;;;5015409;28;20492;-84
2022/01/15 00:34:32;;;;;;;5.22;3.70;;;;;;;;;;5032824;28;20719;-83
2022/01/15 00:36:58;;;;;;;4.05;2.63;;;;;;;;;;5032937;28;20370;-82
2022/01/15 00:39:23;;;;;;;3.72;2.60;;;;;;;;;;5032855;28;20025;-83
2022/01/15 00:41:49;;;;;;;3.58;2.60;;;;;;;;;;5032865;28;20033;-84
2022/01/15 00:44:15;;;;;;;3.47;2.72;;;;;;;;;;5015157;28;20040;-83
2022/01/15 00:46:40;;;;;;;4.32;2.58;;;;;;;;;;5014416;28;20056;-82
2022/01/15 00:49:06;;;;;;;3.13;2.22;;;;;;;;;;5032706;28;20815;-83
2022/01/15 00:51:32;;;;;;;3.47;2.40;;;;;;;;;;5032383;28;20029;-83
2022/01/15 00:53:57;;;;;;;4.75;2.55;;;;;;;;;;5014700;28;20037;-85
2022/01/15 00:56:22;;;;;;;4.00;2.78;;;;;;;;;;5031776;28;20025;-86
2022/01/15 00:58:48;;;;;;;3.53;2.38;;;;;;;;;;5032824;28;20380;-83
2022/01/15 01:01:14;;;;;;;4.63;2.50;;;;;;;;;;5029309;28;20025;-83
2022/01/15 01:03:39;;;;;;;5.20;3.08;;;;;;;;;;5032555;28;20025;-83
2022/01/15 01:06:05;;;;;;;3.97;2.72;;;;;;;;;;5032120;28;20049;-84
2022/01/15 01:08:30;;;;;;;3.35;2.00;;;;;;;;;;5032686;28;20017;-83
2022/01/15 01:10:58;;;;;;;6.78;2.58;;;;;;;;;;5031998;28;20026;-83
2022/01/15 01:24:16;;;;;;;3.33;2.00;;;;;;;;;;5028374;28;20535;-82
2022/01/15 01:31:40;;;;;;;3.65;2.00;;;;;;;;;;5031917;28;20047;-83
2022/01/15 01:34:10;;;;;;;4.93;2.63;;;;;;;;;;5031727;28;20025;-84
2022/01/15 01:39:14;;;;;;;5.05;3.05;;;;;;;;;;5030725;28;20075;-82
2022/01/15 01:41:47;;;;;;;5.05;3.30;;;;;;;;;;5028201;28;20465;-84
2022/01/15 01:44:17;;;;;;;3.83;2.25;;;;;;;;;;5013736;28;20061;-84
2022/01/15 01:46:50;;;;;;;4.35;2.65;;;;;;;;;;5030613;28;20025;-83
2022/01/15 01:49:16;;;;;;;6.25;2.92;;;;;;;;;;5013713;28;20397;-84
2022/01/15 01:51:42;;;;;;;3.50;2.13;;;;;;;;;;5013577;28;20032;-83
2022/01/15 01:54:10;;;;;;;4.63;2.40;;;;;;;;;;5031761;28;20029;-83
2022/01/15 01:56:37;;;;;;;4.28;2.78;;;;;;;;;;5031246;28;20029;-83
2022/01/15 01:59:04;;;;;;;4.80;2.72;;;;;;;;;;5013768;28;20374;-83
2022/01/15 02:01:30;;;;;;;3.85;2.60;;;;;;;;;;5013541;28;20496;-82
2022/01/15 02:03:56;;;;;;;4.68;3.13;;;;;;;;;;5031341;28;20068;-83
2022/01/15 02:06:21;;;;;;;3.63;2.50;;;;;;;;;;5031680;28;20022;-82
2022/01/15 02:08:48;;;;;;;4.32;2.20;;;;;;;;;;5033597;28;20104;-83
2022/01/15 02:11:14;;;;;;;5.97;2.75;;;;;;;;;;5035386;28;20028;-83
2022/01/15 02:13:42;;;;;;;4.63;1.98;;;;;;;;;;5017967;28;20033;-82
2022/01/15 02:16:08;;;;;;;4.00;2.95;;;;;;;;;;5035335;28;20056;-84
2022/01/15 02:18:34;;;;;;;4.32;3.05;;;;;;;;;;5025328;28;20033;-85
2022/01/15 02:23:33;;;;;;;5.03;2.40;;;;;;;;;;5035189;28;20029;-82
2022/01/15 02:23:52;;;;;;;3.38;2.25;;;;;;;;;;5035374;28;20512;-83
2022/01/15 02:26:25;;;;;;;4.50;2.97;;;;;;;;;;5035339;28;20036;-83
2022/01/15 02:28:57;;;;;;;3.65;1.98;;;;;;;;;;5017891;28;20040;-83
2022/01/15 02:31:24;;;;;;;6.32;2.75;;;;;;;;;;5036153;28;20041;-83
2022/01/15 02:33:51;;;;;;;4.75;2.70;;;;;;;;;;5017802;28;20053;-82
2022/01/15 02:36:23;;;;;;;4.85;2.33;;;;;;;;;;5017343;28;20041;-82
2022/01/15 02:38:49;;;;;;;4.35;2.75;;;;;;;;;;5032485;28;20037;-83
2022/01/15 02:41:15;;;;;;;6.68;2.58;;;;;;;;;;5034838;28;20051;-83
2022/01/15 02:43:41;;;;;;;3.92;2.50;;;;;;;;;;5035051;28;20053;-84
2022/01/15 02:48:52;;;;;;;5.78;2.33;;;;;;;;;;5032311;28;20051;-84
2022/01/15 02:51:22;;;;;;;7.20;3.50;;;;;;;;;;5016587;28;20025;-84
2022/01/15 02:53:54;;;;;;;5.15;3.00;;;;;;;;;;5033641;28;20081;-83
2022/01/15 02:56:24;;;;;;;5.68;3.63;;;;;;;;;;5035223;28;20124;-84
2022/01/15 02:58:50;;;;;;;4.85;3.15;;;;;;;;;;5034618;28;20088;-84
2022/01/15 03:01:15;;;;;;;6.35;3.75;;;;;;;;;;5034632;28;20033;-84
2022/01/15 03:03:41;;;;;;;6.18;3.13;;;;;;;;;;5016953;28;20029;-84
2022/01/15 03:06:14;;;;;;;5.85;3.70;;;;;;;;;;5034322;28;20051;-83
2022/01/15 03:08:41;;;;;;;5.38;2.97;;;;;;;;;;5034713;28;20029;-84
2022/01/15 03:11:07;;;;;;;4.05;2.85;;;;;;;;;;5016855;28;20120;-86
2022/01/15 03:13:34;;;;;;;6.35;3.33;;;;;;;;;;5034835;28;20029;-83
2022/01/15 03:16:01;;;;;;;7.68;3.80;;;;;;;;;;5034894;28;20080;-84
2022/01/15 03:18:26;;;;;;;4.93;3.20;;;;;;;;;;5016525;28;20025;-83
2022/01/15 03:20:52;;;;;;;5.90;4.00;;;;;;;;;;5017186;28;20116;-84
2022/01/15 03:23:17;;;;;;;6.07;3.95;;;;;;;;;;5034548;28;20485;-84
2022/01/15 03:25:43;;;;;;;5.38;3.60;;;;;;;;;;5032775;28;20547;-85
2022/01/15 03:28:09;;;;;;;5.25;3.53;;;;;;;;;;5034612;28;20030;-85
2022/01/15 03:30:34;;;;;;;7.13;4.78;;;;;;;;;;5016575;28;20037;-83
2022/01/15 03:33:00;;;;;;;6.80;4.18;;;;;;;;;;5034142;28;20029;-82
2022/01/15 03:35:25;;;;;;;7.13;4.18;;;;;;;;;;5034295;28;20486;-83
2022/01/15 03:37:51;;;;;;;5.57;3.40;;;;;;;;;;5034235;28;20052;-84
2022/01/15 03:40:17;;;;;;;7.47;4.50;;;;;;;;;;5034491;28;20021;-84
2022/01/15 03:42:44;;;;;;;6.03;3.85;;;;;;;;;;5016473;28;20109;-84
2022/01/15 03:45:11;;;;;;;9.93;4.57;;;;;;;;;;5015967;28;20028;-85
2022/01/15 03:47:37;;;;;;;6.38;4.53;;;;;;;;;;5016241;28;20065;-83
2022/01/15 03:50:03;;;;;;;4.93;3.13;;;;;;;;;;5015709;28;20057;-83
2022/01/15 03:52:28;;;;;;;6.82;3.88;;;;;;;;;;5015743;28;20087;-84
2022/01/15 03:54:54;;;;;;;4.82;3.25;;;;;;;;;;5033716;28;20025;-84
2022/01/15 03:57:20;;;;;;;4.82;2.60;;;;;;;;;;5015971;28;20072;-83
2022/01/15 03:59:45;;;;;;;5.20;3.33;;;;;;;;;;5033500;28;20025;-83
2022/01/15 04:02:11;;;;;;;4.75;2.97;;;;;;;;;;5018268;28;20029;-84
2022/01/15 04:04:36;;;;;;;4.80;3.72;;;;;;;;;;5033345;28;20071;-84
2022/01/15 04:07:02;;;;;;;5.13;3.00;;;;;;;;;;5015732;28;20029;-83
2022/01/15 04:09:27;;;;;;;5.22;3.25;;;;;;;;;;5033449;28;20029;-82
2022/01/15 04:11:53;;;;;;;5.38;3.40;;;;;;;;;;5033437;28;20440;-82
2022/01/15 04:14:18;;;;;;;6.30;4.38;;;;;;;;;;5030614;28;20037;-82
2022/01/15 04:16:44;;;;;;;7.80;3.72;;;;;;;;;;5033226;28;20032;-84
2022/01/15 04:19:09;;;;;;;8.07;5.65;;;;;;;;;;5033219;28;20032;-84
2022/01/15 04:21:36;;;;;;;4.97;3.40;;;;;;;;;;5032973;28;20065;-84
2022/01/15 04:24:03;;;;;;;6.97;3.85;;;;;;;;;;5015450;28;20050;-83
2022/01/15 04:26:28;;;;;;;6.22;4.35;;;;;;;;;;5033003;28;20358;-83
2022/01/15 04:29:01;;;;;;;6.78;5.85;;;;;;;;;;5033117;28;20032;-82
2022/01/15 04:31:27;;;;;;;5.72;3.70;;;;;;;;;;5031413;28;20029;-83
2022/01/15 04:33:52;;;;;;;7.43;4.55;;;;;;;;;;5032711;28;20037;-82
2022/01/15 04:36:18;;;;;;;8.63;4.95;;;;;;;;;;5014942;28;20036;-83
2022/01/15 04:38:45;;;;;;;8.60;5.85;;;;;;;;;;5015111;28;20440;-82
2022/01/15 04:41:10;;;;;;;7.85;5.35;;;;;;;;;;5014772;28;20034;-81
2022/01/15 04:43:36;;;;;;;7.78;5.30;;;;;;;;;;5025915;28;20083;-82
2022/01/15 04:46:02;;;;;;;8.15;4.40;;;;;;;;;;5032464;28;20537;-84
2022/01/15 04:48:28;;;;;;;6.30;5.00;;;;;;;;;;5032654;28;20421;-84
2022/01/15 04:50:54;;;;;;;10.10;5.25;;;;;;;;;;5032344;28;20091;-84
2022/01/15 04:53:20;;;;;;;6.45;3.88;;;;;;;;;;5014749;28;20029;-83
2022/01/15 04:55:45;;;;;;;6.53;4.60;;;;;;;;;;5014351;28;20075;-86
2022/01/15 04:58:11;;;;;;;10.40;4.85;;;;;;;;;;5015177;28;20465;-84
2022/01/15 05:00:37;;;;;;;6.65;5.55;;;;;;;;;;5032495;28;20059;-83
2022/01/15 05:03:03;;;;;;;10.45;6.78;;;;;;;;;;5032754;28;20505;-84
2022/01/15 05:05:29;;;;;;;5.70;3.75;;;;;;;;;;5032265;28;20017;-83
2022/01/15 05:07:55;;;;;;;10.52;5.28;;;;;;;;;;5014592;28;20025;-84
2022/01/15 05:10:25;;;;;;;5.93;3.95;;;;;;;;;;5014684;28;20029;-84
2022/01/15 05:12:51;;;;;;;6.30;4.40;;;;;;;;;;5032255;28;20037;-83
2022/01/15 05:15:18;;;;;;;7.68;5.13;;;;;;;;;;5032071;28;20021;-84
2022/01/15 05:17:45;;;;;;;7.22;3.95;;;;;;;;;;5014562;28;20041;-83
2022/01/15 05:20:12;;;;;;;7.47;3.95;;;;;;;;;;5032560;28;20025;-84
2022/01/15 05:22:39;;;;;;;7.00;4.25;;;;;;;;;;5032084;28;20048;-84
2022/01/15 05:25:07;;;;;;;7.53;4.10;;;;;;;;;;5014164;28;20021;-84
2022/01/15 05:27:36;;;;;;;6.63;4.13;;;;;;;;;;5014650;28;20026;-85
2022/01/15 05:30:04;;;;;;;6.60;4.43;;;;;;;;;;5031998;28;20060;-86
2022/01/15 05:32:29;;;;;;;7.18;5.65;;;;;;;;;;5032088;28;20025;-83
2022/01/15 05:34:57;;;;;;;7.40;4.70;;;;;;;;;;5031684;28;20029;-84
2022/01/15 05:37:23;;;;;;;7.65;4.70;;;;;;;;;;5031791;28;20029;-84
2022/01/15 05:39:49;;;;;;;6.57;4.50;;;;;;;;;;5031819;28;20854;-83
2022/01/15 05:42:14;;;;;;;7.95;4.90;;;;;;;;;;5031490;28;20022;-84
2022/01/15 05:44:40;;;;;;;7.35;4.50;;;;;;;;;;5031727;28;20061;-84
2022/01/15 05:47:06;;;;;;;7.88;5.78;;;;;;;;;;5031811;28;20026;-83
2022/01/15 05:49:31;;;;;;;8.93;5.35;;;;;;;;;;5014109;28;20465;-83
2022/01/15 05:51:57;;;;;;;6.45;4.55;;;;;;;;;;5031615;28;20365;-84
2022/01/15 05:54:22;;;;;;;6.78;4.28;;;;;;;;;;5013552;28;20025;-83
2022/01/15 05:56:47;;;;;;;6.95;5.07;;;;;;;;;;5031422;28;20040;-83
2022/01/15 05:59:13;;;;;;;6.85;4.80;;;;;;;;;;5013937;28;20021;-83
2022/01/15 06:01:39;;;;;;;8.27;5.20;;;;;;;;;;5031873;28;20509;-83
2022/01/15 06:04:05;;;;;;;8.40;5.78;;;;;;;;;;5031480;28;20082;-82
2022/01/15 06:06:30;;;;;;;9.02;4.50;;;;;;;;;;5031362;28;20468;-85
2022/01/15 06:08:56;;;;;;;8.68;5.55;;;;;;;;;;5013607;28;20079;-84
2022/01/15 06:11:23;;;;;;;9.35;5.30;;;;;;;;;;5013480;28;20032;-84
2022/01/15 06:13:49;;;;;;;6.75;4.40;;;;;;;;;;5013838;28;20061;-83
2022/01/15 06:16:16;;;;;;;8.30;5.03;;;;;;;;;;5013405;28;20033;-84
2022/01/15 06:18:42;;;;;;;9.32;5.78;;;;;;;;;;5013562;28;20105;-84
2022/01/15 06:21:08;;;;;;;9.32;6.43;;;;;;;;;;5030923;28;20116;-82
2022/01/15 06:23:34;;;;;;;6.95;5.30;;;;;;;;;;5013528;28;20050;-83
2022/01/15 06:25:59;;;;;;;7.82;4.63;;;;;;;;;;5029914;28;20022;-84
2022/01/15 06:28:25;;;;;;;10.40;5.75;;;;;;;;;;5029053;28;20040;-84
2022/01/15 06:30:51;;;;;;;10.10;5.28;;;;;;;;;;5012911;28;20032;-83
2022/01/15 06:33:17;;;;;;;7.13;4.68;;;;;;;;;;5030717;28;20397;-83
2022/01/15 06:35:42;;;;;;;6.20;4.30;;;;;;;;;;5028330;28;20053;-85
2022/01/15 06:38:08;;;;;;;10.38;6.00;;;;;;;;;;5030640;28;20037;-83
2022/01/15 06:40:34;;;;;;;7.97;5.85;;;;;;;;;;5029313;28;20445;-85
2022/01/15 06:43:01;;;;;;;7.13;3.95;;;;;;;;;;5028871;28;20113;-85
2022/01/15 06:45:27;;;;;;;7.82;4.82;;;;;;;;;;5028604;28;20025;-85
2022/01/15 06:47:53;;;;;;;7.88;4.85;;;;;;;;;;5027578;28;20037;-83
2022/01/15 06:50:19;;;;;;;10.88;7.07;;;;;;;;;;5030174;28;20033;-85
2022/01/15 06:52:44;;;;;;;9.23;5.88;;;;;;;;;;5030796;28;20112;-84
2022/01/15 06:55:11;;;;;;;6.78;4.55;;;;;;;;;;5033899;28;20182;-84
2022/01/15 06:57:38;;;;;;;6.80;4.68;;;;;;;;;;5034774;28;20034;-86
2022/01/15 07:00:05;;;;;;;7.32;4.85;;;;;;;;;;5017182;28;20087;-84
2022/01/15 07:02:31;;;;;;;9.75;6.18;;;;;;;;;;5034975;28;20022;-83
2022/01/15 07:04:57;;;;;;;7.97;4.97;;;;;;;;;;5034934;28;20159;-85
2022/01/15 07:07:22;;;;;;;7.10;4.63;;;;;;;;;;5033413;28;20029;-83
2022/01/15 07:09:48;;;;;;;9.27;5.90;;;;;;;;;;5035277;28;20119;-85
2022/01/15 07:12:13;;;;;;;10.50;5.45;;;;;;;;;;5034790;28;20106;-83
2022/01/15 07:14:39;;;;;;;8.90;6.47;;;;;;;;;;5032918;28;20025;-85
2022/01/15 07:17:05;;;;;;;8.65;6.22;;;;;;;;;;5016113;28;20029;-83
2022/01/15 07:19:31;;;;;;;8.00;5.30;;;;;;;;;;5016609;28;20025;-83
2022/01/15 07:21:57;;;;;;;8.13;4.97;;;;;;;;;;5034245;28;20021;-83
2022/01/15 07:24:23;;;;;;;4.90;4.10;;;;;;;;;;5034370;28;20120;-84
2022/01/15 07:26:49;;;;;;;7.95;4.82;;;;;;;;;;5033058;28;20100;-83
2022/01/15 07:29:16;;;;;;;8.77;5.28;;;;;;;;;;5034261;28;20075;-84
2022/01/15 07:31:43;;;;;;;7.50;5.72;;;;;;;;;;5032682;28;20026;-83
2022/01/15 07:34:09;;;;;;;8.57;5.43;;;;;;;;;;5034362;28;20374;-85
2022/01/15 07:36:34;;;;;;;9.68;7.25;;;;;;;;;;5033803;28;20310;-83
2022/01/15 07:39:00;;;;;;;9.68;6.65;;;;;;;;;;5016054;28;20546;-83
2022/01/15 07:41:25;;;;;;;10.90;6.80;;;;;;;;;;5033425;28;20482;-82
2022/01/15 07:43:51;;;;;;;12.18;8.88;;;;;;;;;;5033961;28;20717;-82
2022/01/15 07:46:17;;;;;;;11.60;7.90;;;;;;;;;;5033553;28;20017;-83
2022/01/15 07:48:43;;;;;;;10.13;6.25;;;;;;;;;;5033711;28;20416;-83
2022/01/15 07:51:09;;;;;;;11.10;8.00;;;;;;;;;;5033366;28;20026;-82
2022/01/15 07:53:34;;;;;;;15.95;6.95;;;;;;;;;;5032631;28;20469;-84
2022/01/15 07:56:00;;;;;;;9.13;6.45;;;;;;;;;;5033245;28;20025;-83
2022/01/15 07:58:25;;;;;;;11.38;8.07;;;;;;;;;;5033832;28;20083;-82
2022/01/15 08:00:51;;;;;;;14.95;8.65;;;;;;;;;;5033309;28;20028;-81
2022/01/15 08:03:17;;;;;;;11.63;7.30;;;;;;;;;;5015826;28;20033;-83
2022/01/15 08:05:42;;;;;;;11.85;6.95;;;;;;;;;;5032552;28;20404;-83
2022/01/15 08:08:07;;;;;;;16.55;8.20;;;;;;;;;;5030728;28;20144;-83
2022/01/15 08:10:33;;;;;;;18.45;9.85;;;;;;;;;;5033075;28;20033;-82
2022/01/15 08:12:59;;;;;;;14.63;10.10;;;;;;;;;;5033501;28;20025;-84
2022/01/15 08:15:25;;;;;;;13.90;9.05;;;;;;;;;;5019292;28;20021;-82
2022/01/15 08:17:51;;;;;;;12.90;7.50;;;;;;;;;;5015536;28;20025;-82
2022/01/15 08:20:17;;;;;;;14.73;9.68;;;;;;;;;;5033330;28;20037;-83
2022/01/15 08:22:45;;;;;;;15.82;8.23;;;;;;;;;;5033235;28;20371;-83
2022/01/15 08:25:13;;;;;;;13.65;8.40;;;;;;;;;;5032793;28;20060;-83
2022/01/15 08:27:39;;;;;;;11.43;7.13;;;;;;;;;;5033134;28;20033;-83
2022/01/15 08:30:06;;;;;;;14.50;7.93;;;;;;;;;;5023647;28;20470;-83
2022/01/15 08:32:32;;;;;;;9.80;7.05;;;;;;;;;;5032860;28;20029;-82
2022/01/15 08:34:57;;;;;;;12.38;7.40;;;;;;;;;;5033666;28;20496;-84
2022/01/15 08:37:23;;;;;;;14.60;8.98;;;;;;;;;;5015229;28;20025;-85
2022/01/15 08:39:48;;;;;;;13.88;8.90;;;;;;;;;;5032371;28;20033;-83
2022/01/15 08:42:14;;;;;;;12.13;6.90;;;;;;;;;;5032654;28;20025;-82
2022/01/15 08:44:42;;;;;;;11.23;7.03;;;;;;;;;;5032318;28;20021;-81
2022/01/15 08:47:08;;;;;;;12.50;8.18;;;;;;;;;;5032143;28;20053;-82
2022/01/15 08:49:34;;;;;;;13.00;7.88;;;;;;;;;;5031699;28;20037;-81
2022/01/15 08:51:59;;;;;;;11.52;7.78;;;;;;;;;;5013772;28;20091;-84
2022/01/15 08:54:25;;;;;;;14.88;9.13;;;;;;;;;;5030351;28;20381;-82
2022/01/15 08:56:50;;;;;;;11.60;7.47;;;;;;;;;;5026109;28;20423;-82
2022/01/15 08:59:16;;;;;;;9.63;6.00;;;;;;;;;;5032038;28;20064;-84
2022/01/15 09:01:41;;;;;;;10.88;7.38;;;;;;;;;;5014364;28;20037;-84
2022/01/15 09:04:07;;;;;;;10.40;6.60;;;;;;;;;;5031982;28;20021;-83
2022/01/15 09:06:33;;;;;;;12.93;7.45;;;;;;;;;;5031822;28;20109;-82
2022/01/15 09:08:58;;;;;;;10.13;6.97;;;;;;;;;;5032131;28;20042;-82
2022/01/15 09:11:24;;;;;;;15.07;8.88;;;;;;;;;;5032101;28;20454;-84
2022/01/15 09:13:49;;;;;;;11.13;7.47;;;;;;;;;;5031008;28;20036;-83
2022/01/15 09:16:15;;;;;;;9.35;6.25;;;;;;;;;;5028375;28;20033;-85
2022/01/15 09:18:40;;;;;;;11.52;7.63;;;;;;;;;;5026956;28;20040;-83
2022/01/15 09:21:06;;;;;;;12.52;7.60;;;;;;;;;;5028319;28;20139;-83
2022/01/15 09:23:32;;;;;;;12.23;7.68;;;;;;;;;;5027599;28;20494;-81
2022/01/15 09:25:58;;;;;;;16.92;10.35;;;;;;;;;;5026189;28;20398;-85
2022/01/15 09:31:09;;;;;;;14.18;8.75;;;;;;;;;;5029170;28;20685;-82
2022/01/15 09:33:35;;;;;;;13.35;7.85;;;;;;;;;;5009922;28;20052;-84
2022/01/15 09:36:00;;;;;;;12.82;8.15;;;;;;;;;;5026062;28;20072;-83
2022/01/15 09:38:26;;;;;;;13.18;8.68;;;;;;;;;;5031429;28;20025;-82
2022/01/15 09:40:51;;;;;;;13.10;6.68;;;;;;;;;;5030978;28;20026;-83
2022/01/15 09:43:17;;;;;;;13.15;8.07;;;;;;;;;;5031667;28;20029;-82
2022/01/15 09:45:44;;;;;;;11.48;8.10;;;;;;;;;;5031887;28;20093;-82
2022/01/15 09:48:10;;;;;;;10.98;7.60;;;;;;;;;;5012609;28;20041;-83
2022/01/15 09:50:42;;;;;;;11.55;8.07;;;;;;;;;;5027861;28;20025;-83
2022/01/15 09:53:08;;;;;;;12.13;8.57;;;;;;;;;;5027788;28;20172;-86
2022/01/15 09:55:34;;;;;;;14.45;7.30;;;;;;;;;;5031116;28;20121;-83
2022/01/15 09:58:00;;;;;;;9.10;6.07;;;;;;;;;;5013570;28;20065;-83
2022/01/15 10:00:27;;;;;;;8.48;5.45;;;;;;;;;;5031226;28;20161;-82
2022/01/15 10:02:54;;;;;;;13.65;8.85;;;;;;;;;;5013483;28;20033;-82
2022/01/15 10:05:20;;;;;;;13.25;9.20;;;;;;;;;;5010489;28;20017;-82
2022/01/15 10:07:56;;;;;;;17.42;8.82;;;;;;;;;;5031695;28;20160;-82
2022/01/15 10:10:23;;;;;;;10.77;6.22;;;;;;;;;;5030810;28;20036;-84
2022/01/15 10:12:48;;;;;;;12.00;7.05;;;;;;;;;;5031568;28;20033;-82
2022/01/15 10:15:17;;;;;;;9.73;5.18;;;;;;;;;;5013212;28;20527;-83
2022/01/15 10:17:43;;;;;;;11.75;7.55;;;;;;;;;;5031000;28;20116;-82
2022/01/15 10:20:16;;;;;;;9.77;6.25;;;;;;;;;;5014653;28;20037;-82
2022/01/15 10:22:44;;;;;;;10.45;6.85;;;;;;;;;;5029766;28;20131;-82
2022/01/15 10:25:18;;;;;;;9.85;6.38;;;;;;;;;;5032336;28;20434;-83
2022/01/15 10:27:45;;;;;;;11.80;6.97;;;;;;;;;;5013388;28;20116;-82
2022/01/15 10:30:19;;;;;;;10.48;6.97;;;;;;;;;;5015471;28;20104;-83
2022/01/15 10:32:58;;;;;;;10.80;7.45;;;;;;;;;;5035282;28;20036;-82
2022/01/15 10:35:34;;;;;;;10.00;7.40;;;;;;;;;;5035108;28;20025;-84
2022/01/15 10:38:14;;;;;;;10.68;7.00;;;;;;;;;;5034221;28;20489;-83
2022/01/15 10:40:45;;;;;;;8.02;5.32;;;;;;;;;;5008158;28;20382;-83
2022/01/15 10:43:13;;;;;;;11.70;7.15;;;;;;;;;;5027854;28;20109;-86
2022/01/15 10:45:48;;;;;;;12.15;7.15;;;;;;;;;;5034174;28;20025;-83
2022/01/15 10:48:31;;;;;;;12.25;8.02;;;;;;;;;;5016464;28;20033;-83
2022/01/15 10:51:00;;;;;;;9.55;6.07;;;;;;;;;;5034303;28;20474;-84
2022/01/15 10:53:38;;;;;;;13.43;8.30;;;;;;;;;;5034637;28;20025;-84
2022/01/15 10:56:06;;;;;;;14.57;8.80;;;;;;;;;;5034184;28;20037;-84
2022/01/15 10:58:31;;;;;;;17.88;8.02;;;;;;;;;;5034528;28;20030;-81
2022/01/15 11:00:57;;;;;;;12.23;8.15;;;;;;;;;;5033928;28;20513;-83
2022/01/15 11:03:24;;;;;;;16.30;9.27;;;;;;;;;;5030336;28;20025;-81
2022/01/15 11:05:53;;;;;;;13.05;7.88;;;;;;;;;;5031117;28;20525;-82
2022/01/15 11:08:23;;;;;;;9.85;6.15;;;;;;;;;;5034043;28;20083;-86
2022/01/15 11:10:52;;;;;;;;;;;;;;;;;;5035845;28;20119;-85
2022/01/15 11:13:21;;;;;;;14.82;9.57;;;;;;;;;;5033338;28;19919;-83
2022/01/15 11:15:49;;;;;;;10.35;6.35;;;;;;;;;;5014282;28;20032;-85
2022/01/15 11:18:19;;;;;;;11.23;6.75;;;;;;;;;;5018002;28;20040;-83
2022/01/15 11:20:46;;;;;;;;;;;;;;;;;;5033913;28;20022;-84
2022/01/15 11:23:12;;;;;;;8.35;5.53;;;;;;;;;;5031133;28;19924;-83
2022/01/15 11:25:38;;;;;;;11.27;7.65;;;;;;;;;;5015843;28;21112;-85
2022/01/15 11:28:05;;;;;;;12.38;7.10;;;;;;;;;;5015533;28;20498;-84
2022/01/15 11:30:32;;;;;;;11.65;7.63;;;;;;;;;;5016039;28;20028;-82
2022/01/15 11:32:58;;;;;;;12.50;8.35;;;;;;;;;;5033423;28;20033;-83
2022/01/15 11:35:45;;;;;;;11.93;7.78;;;;;;;;;;5032920;28;20044;-82
2022/01/15 11:38:31;;;;;;;14.40;7.40;;;;;;;;;;5030665;28;20424;-83
2022/01/15 11:40:57;;;;;;;13.35;7.82;;;;;;;;;;5013265;28;20037;-81
2022/01/15 11:43:25;;;;;;;10.45;7.38;;;;;;;;;;5015720;28;20033;-83
2022/01/15 11:45:56;;;;;;;13.05;7.88;;;;;;;;;;5032242;28;20051;-83
2022/01/15 11:48:24;;;;;;;13.98;8.70;;;;;;;;;;5033089;28;20025;-82
2022/01/15 11:51:14;;;;;;;12.63;6.47;;;;;;;;;;5031458;28;20079;-85
2022/01/15 11:54:12;;;;;;;11.20;7.03;;;;;;;;;;5032054;28;20028;-83
2022/01/15 11:56:42;;;;;;;15.68;8.77;;;;;;;;;;5025608;28;20041;-82
2022/01/15 11:59:25;;;;;;;15.90;8.82;;;;;;;;;;5014223;28;20029;-84
2022/01/15 12:01:59;;;;;;;12.50;6.93;;;;;;;;;;5032842;28;20100;-82
2022/01/15 12:04:26;;;;;;;9.73;6.88;;;;;;;;;;5032996;28;20079;-82
2022/01/15 12:07:00;;;;;;;11.95;7.50;;;;;;;;;;5032406;28;20084;-83
2022/01/15 12:09:40;;;;;;;10.93;7.10;;;;;;;;;;5030629;28;20421;-82
2022/01/15 12:12:26;;;;;;;9.35;5.93;;;;;;;;;;5029606;28;20389;-80
2022/01/15 12:14:59;;;;;;;12.60;7.78;;;;;;;;;;5032512;28;20028;-84
2022/01/15 12:17:42;;;;;;;12.00;7.20;;;;;;;;;;5032136;28;20029;-84
2022/01/15 12:20:08;;;;;;;11.93;7.18;;;;;;;;;;5034003;28;20479;-85
2022/01/15 12:22:56;;;;;;;13.82;7.97;;;;;;;;;;5032261;28;20121;-80
2022/01/15 12:25:30;;;;;;;14.35;7.88;;;;;;;;;;5030399;28;20017;-84
2022/01/15 12:27:55;;;;;;;12.18;7.43;;;;;;;;;;5008154;28;20037;-82
2022/01/15 12:30:27;;;;;;;12.40;8.27;;;;;;;;;;5030682;28;20547;-82
2022/01/15 12:32:54;;;;;;;13.30;8.68;;;;;;;;;;5014099;28;20099;-83
2022/01/15 12:35:25;;;;;;;12.07;8.45;;;;;;;;;;5029061;28;20043;-82
2022/01/15 12:38:10;;;;;;;9.82;6.43;;;;;;;;;;5011971;28;20377;-83
2022/01/15 12:40:54;;;;;;;11.82;7.47;;;;;;;;;;5030731;28;20470;-83
2022/01/15 12:43:35;;;;;;;11.13;7.03;;;;;;;;;;5031119;28;20104;-82
2022/01/15 12:46:07;;;;;;;12.45;7.95;;;;;;;;;;5012486;28;20013;-84
2022/01/15 12:48:36;;;;;;;8.55;5.80;;;;;;;;;;5013617;28;20089;-82
2022/01/15 12:51:04;;;;;;;12.35;7.43;;;;;;;;;;5027143;28;20033;-83
2022/01/15 12:53:35;;;;;;;9.95;6.95;;;;;;;;;;5030041;28;20053;-84
2022/01/15 12:56:09;;;;;;;12.65;7.05;;;;;;;;;;5029049;28;20033;-83
2022/01/15 12:58:35;;;;;;;10.57;7.28;;;;;;;;;;5030542;28;20105;-82
2022/01/15 13:01:02;;;;;;;11.55;6.22;;;;;;;;;;5029758;28;20108;-84
2022/01/15 13:03:29;;;;;;;11.63;5.38;;;;;;;;;;5010931;28;20036;-83
2022/01/15 13:06:03;;;;;;;12.13;7.47;;;;;;;;;;5025443;28;20017;-83
2022/01/15 13:08:34;;;;;;;15.18;8.45;;;;;;;;;;5029161;28;20473;-82
2022/01/15 13:11:06;;;;;;;13.38;7.88;;;;;;;;;;5010865;28;20119;-83
2022/01/15 13:13:33;;;;;;;9.13;7.03;;;;;;;;;;5030051;28;20029;-82
2022/01/15 13:16:07;;;;;;;10.35;6.55;;;;;;;;;;5027695;28;20040;-82
2022/01/15 13:18:39;;;;;;;11.68;7.65;;;;;;;;;;5028747;28;20033;-82
2022/01/15 13:21:07;;;;;;;11.32;7.50;;;;;;;;;;5012773;28;20037;-81
2022/01/15 13:24:12;;;;;;;16.50;10.32;;;;;;;;;;4985654;28;1313081;-84
2022/01/15 13:26:38;;;;;;;15.18;9.93;;;;;;;;;;5008461;28;20050;-83
2022/01/15 13:29:11;;;;;;;12.95;8.30;;;;;;;;;;5028146;28;20037;-81
2022/01/15 13:31:39;;;;;;;13.18;8.43;;;;;;;;;;5028479;28;20107;-81
2022/01/15 13:34:09;;;;;;;11.10;7.65;;;;;;;;;;5024924;28;20083;-81
2022/01/15 13:36:35;;;;;;;14.20;7.40;;;;;;;;;;5030977;28;20036;-81
2022/01/15 13:39:01;;;;;;;13.63;8.40;;;;;;;;;;5012967;28;20026;-84
2022/01/15 13:41:32;;;;;;;14.25;8.25;;;;;;;;;;5030913;28;20074;-82
2022/01/15 13:44:06;;;;;;;19.35;8.57;;;;;;;;;;5030888;28;20028;-84
2022/01/15 13:46:38;;;;;;;15.82;9.25;;;;;;;;;;5028651;28;20075;-82
2022/01/15 13:49:10;;;;;;;14.18;10.07;;;;;;;;;;5025667;28;20025;-83
2022/01/15 13:54:36;;;;;;;17.60;11.05;;;;;;;;;;5031073;28;20036;-84
2022/01/15 13:57:08;;;;;;;22.20;15.50;;;;;;;;;;5027511;28;20105;-81
2022/01/15 13:59:34;;;;;;;16.17;11.10;;;;;;;;;;5031688;28;20076;-82
2022/01/15 14:02:01;;;;;;;14.02;10.70;;;;;;;;;;5013798;28;20025;-81
2022/01/15 14:04:31;;;;;;;13.40;9.70;;;;;;;;;;5027625;28;20539;-83
2022/01/15 14:07:02;;;;;;;15.05;10.68;;;;;;;;;;5030320;28;20029;-82
2022/01/15 14:09:29;;;;;;;10.70;7.30;;;;;;;;;;5030502;28;20382;-84
2022/01/15 14:12:06;;;;;;;8.75;5.72;;;;;;;;;;5012673;28;20052;-83
2022/01/15 14:14:53;;;;;;;8.57;5.53;;;;;;;;;;5031150;28;20543;-84
2022/01/15 14:17:24;;;;;;;9.80;5.93;;;;;;;;;;5016735;28;20033;-81
2022/01/15 14:22:47;;;;;;;9.85;5.38;;;;;;;;;;5029006;28;20140;-83
2022/01/15 14:25:19;;;;;;;8.32;5.03;;;;;;;;;;5029292;28;20412;-83
2022/01/15 14:27:59;;;;;;;9.00;5.35;;;;;;;;;;5030480;28;20025;-81
2022/01/15 14:30:25;;;;;;;10.52;7.20;;;;;;;;;;5030588;28;20469;-84
2022/01/15 14:32:50;;;;;;;10.25;6.88;;;;;;;;;;5030784;28;20033;-81
2022/01/15 14:35:16;;;;;;;7.28;5.25;;;;;;;;;;5006008;28;20052;-82
2022/01/15 14:37:41;;;;;;;12.75;8.60;;;;;;;;;;5030740;28;20021;-82
2022/01/15 14:40:08;;;;;;;9.40;6.25;;;;;;;;;;5030383;28;20103;-82
2022/01/15 14:42:33;;;;;;;10.98;6.78;;;;;;;;;;5010381;28;20036;-82
2022/01/15 14:44:58;;;;;;;21.83;12.02;;;;;;;;;;5012484;28;20021;-82
2022/01/15 14:47:24;;;;;;;20.45;11.02;;;;;;;;;;5012886;28;20101;-83
2022/01/15 14:49:49;;;;;;;11.15;7.13;;;;;;;;;;5013240;28;20052;-82
2022/01/15 14:52:15;;;;;;;15.25;9.32;;;;;;;;;;5030131;28;20021;-81
2022/01/15 14:54:41;;;;;;;12.63;7.55;;;;;;;;;;5030536;28;20053;-82
2022/01/15 14:57:06;;;;;;;11.50;8.27;;;;;;;;;;5030302;28;20478;-82
2022/01/15 14:59:31;;;;;;;19.13;11.30;;;;;;;;;;5030476;28;20464;-83
2022/01/15 15:01:57;;;;;;;17.42;11.00;;;;;;;;;;5029915;28;20056;-83
2022/01/15 15:04:23;;;;;;;19.52;11.88;;;;;;;;;;5030399;28;20024;-80
2022/01/15 15:06:48;;;;;;;11.55;8.18;;;;;;;;;;5008842;28;20037;-83
2022/01/15 15:09:14;;;;;;;15.77;9.98;;;;;;;;;;5027722;28;20028;-83
2022/01/15 15:11:39;;;;;;;13.88;8.65;;;;;;;;;;5026329;28;20025;-83
2022/01/15 15:14:05;;;;;;;15.48;10.52;;;;;;;;;;5009729;28;20036;-82